createdAt,value
2019-03-17T00:02:33.689Z,21.7
2019-03-17T00:05:39.818Z,21.7
2019-03-17T00:08:45.786Z,21.7
2019-03-17T00:11:51.728Z,21.7
2019-03-17T00:15:04.912Z,21.6
2019-03-17T00:18:12.149Z,21.7
2019-03-17T00:21:18.130Z,21.6
2019-03-17T00:24:24.072Z,21.6
2019-03-17T00:27:29.967Z,21.6
2019-03-17T00:30:35.874Z,21.7
2019-03-17T00:33:41.803Z,21.6
2019-03-17T00:36:47.758Z,21.6
2019-03-17T00:39:56.111Z,21.6
2019-03-17T00:43:02.334Z,21.6
2019-03-17T00:46:08.446Z,21.6
2019-03-17T00:49:14.349Z,21.6
2019-03-17T00:52:20.293Z,21.6
2019-03-17T00:55:26.234Z,21.6
2019-03-17T00:58:32.143Z,21.6
2019-03-17T01:01:38.099Z,21.6
2019-03-17T01:04:55.432Z,21.5
2019-03-17T01:08:02.160Z,21.5
2019-03-17T01:11:08.411Z,21.6
2019-03-17T01:14:14.309Z,21.6
2019-03-17T01:17:20.352Z,21.5
2019-03-17T01:20:26.322Z,21.6
2019-03-17T01:23:35.050Z,21.5
2019-03-17T01:26:41.020Z,21.5
2019-03-17T01:29:46.951Z,21.5
2019-03-17T01:32:52.996Z,21.5
2019-03-17T01:35:58.958Z,21.5
2019-03-17T01:39:07.613Z,21.5
2019-03-17T01:42:13.527Z,21.5
2019-03-17T01:45:22.155Z,21.5
2019-03-17T01:48:28.101Z,21.5
2019-03-17T01:51:34.013Z,21.5
2019-03-17T01:54:39.923Z,21.5
2019-03-17T01:57:45.887Z,21.5
2019-03-17T02:00:55.135Z,21.5
2019-03-17T02:04:01.228Z,21.5
2019-03-17T02:07:07.160Z,21.5
2019-03-17T02:10:13.173Z,21.5
2019-03-17T02:13:19.122Z,21.4
2019-03-17T02:16:25.287Z,21.5
2019-03-17T02:19:31.355Z,21.4
2019-03-17T02:22:37.294Z,21.4
2019-03-17T02:25:43.242Z,21.4
2019-03-17T02:28:49.111Z,21.4
2019-03-17T02:31:55.094Z,21.4
2019-03-17T02:35:01.085Z,21.4
2019-03-17T02:38:07.071Z,21.4
2019-03-17T02:41:12.978Z,21.4
2019-03-17T02:44:18.881Z,21.4
2019-03-17T02:47:24.821Z,21.4
2019-03-17T02:50:30.939Z,21.4
2019-03-17T02:53:37.137Z,21.4
2019-03-17T02:56:43.151Z,21.4
2019-03-17T02:59:49.088Z,21.4
2019-03-17T03:02:55.066Z,21.4
2019-03-17T03:06:01.042Z,21.4
2019-03-17T03:09:06.944Z,21.4
2019-03-17T03:12:13.009Z,21.4
2019-03-17T03:15:18.997Z,21.4
2019-03-17T03:18:25.019Z,21.4
2019-03-17T03:21:31.017Z,21.4
2019-03-17T03:24:36.937Z,21.4
2019-03-17T03:27:43.043Z,21.4
2019-03-17T03:30:48.953Z,21.3
2019-03-17T03:33:54.931Z,21.4
2019-03-17T03:37:00.836Z,21.3
2019-03-17T03:40:06.996Z,21.4
2019-03-17T03:43:12.910Z,21.3
2019-03-17T03:46:18.991Z,21.4
2019-03-17T03:49:25.122Z,21.3
2019-03-17T03:52:31.094Z,21.4
2019-03-17T03:55:37.127Z,21.3
2019-03-17T03:58:47.570Z,21.3
2019-03-17T04:01:53.516Z,21.4
2019-03-17T04:04:59.551Z,21.3
2019-03-17T04:08:06.065Z,21.3
2019-03-17T04:11:12.023Z,21.3
2019-03-17T04:14:17.935Z,21.3
2019-03-17T04:17:23.995Z,21.3
2019-03-17T04:20:29.980Z,21.3
2019-03-17T04:23:35.957Z,21.3
2019-03-17T04:26:41.894Z,21.3
2019-03-17T04:29:48.032Z,21.3
2019-03-17T04:32:54.027Z,21.3
2019-03-17T04:35:59.954Z,21.3
2019-03-17T04:39:05.915Z,21.3
2019-03-17T04:42:11.926Z,21.3
2019-03-17T04:45:17.870Z,21.3
2019-03-17T04:48:23.908Z,21.3
2019-03-17T04:51:29.880Z,21.3
2019-03-17T04:54:35.840Z,21.3
2019-03-17T04:57:41.828Z,21.3
2019-03-17T05:00:47.694Z,21.3
2019-03-17T05:03:53.754Z,21.4
2019-03-17T05:06:59.767Z,21.4
2019-03-17T05:10:05.711Z,21.5
2019-03-17T05:13:11.732Z,21.5
2019-03-17T05:16:17.662Z,21.6
2019-03-17T05:19:23.651Z,21.6
2019-03-17T05:22:29.516Z,21.7
2019-03-17T05:25:35.472Z,21.7
2019-03-17T05:28:41.434Z,21.8
2019-03-17T05:31:47.297Z,21.8
2019-03-17T05:34:53.296Z,21.9
2019-03-17T05:37:59.316Z,21.9
2019-03-17T05:41:05.250Z,22
2019-03-17T05:44:11.238Z,22
2019-03-17T05:47:17.280Z,22.1
2019-03-17T05:50:23.287Z,22.1
2019-03-17T05:53:29.208Z,22.1
2019-03-17T05:56:35.184Z,22.2
2019-03-17T05:59:41.125Z,22.2
2019-03-17T06:02:47.050Z,22.3
2019-03-17T06:05:53.061Z,22.3
2019-03-17T06:08:59.081Z,22.4
2019-03-17T06:12:05.056Z,22.4
2019-03-17T06:15:11.034Z,22.4
2019-03-17T06:18:17.050Z,22.5
2019-03-17T06:21:23.114Z,22.5
2019-03-17T06:24:29.002Z,22.6
2019-03-17T06:27:34.938Z,22.6
2019-03-17T06:30:40.890Z,22.7
2019-03-17T06:33:46.926Z,22.7
2019-03-17T06:36:52.997Z,22.8
2019-03-17T06:39:58.913Z,22.8
2019-03-17T06:43:04.870Z,22.8
2019-03-17T06:46:10.823Z,22.9
2019-03-17T06:49:16.784Z,22.9
2019-03-17T06:52:22.888Z,22.9
2019-03-17T06:55:29.057Z,23
2019-03-17T06:58:35.055Z,23
2019-03-17T07:01:41.001Z,23
2019-03-17T07:04:47.059Z,23.1
2019-03-17T07:07:55.775Z,23.1
2019-03-17T07:11:01.671Z,23.1
2019-03-17T07:14:07.582Z,23.2
2019-03-17T07:17:13.512Z,23.2
2019-03-17T07:20:22.341Z,23.2
2019-03-17T07:23:28.276Z,23.3
2019-03-17T07:26:37.435Z,23.3
2019-03-17T07:29:43.301Z,23.3
2019-03-17T07:32:51.893Z,23.3
2019-03-17T07:35:57.817Z,23.4
2019-03-17T07:39:11.461Z,23.4
2019-03-17T07:42:18.243Z,23.4
2019-03-17T07:45:24.452Z,23.4
2019-03-17T07:48:30.572Z,23.4
2019-03-17T07:51:39.144Z,23.5
2019-03-17T07:54:45.108Z,23.5
2019-03-17T07:57:51.158Z,23.5
2019-03-17T08:00:57.096Z,23.5
2019-03-17T08:04:05.951Z,23.5
2019-03-17T08:07:11.880Z,23.5
2019-03-17T08:10:20.654Z,23.5
2019-03-17T08:13:26.628Z,23.5
2019-03-17T08:16:32.686Z,23.5
2019-03-17T08:19:38.614Z,23.6
2019-03-17T08:22:44.546Z,23.6
2019-03-17T08:25:50.548Z,23.6
2019-03-17T08:28:56.622Z,23.6
2019-03-17T08:32:02.458Z,23.6
2019-03-17T08:35:08.521Z,23.6
2019-03-17T08:38:21.567Z,23.6
2019-03-17T08:41:28.408Z,23.6
2019-03-17T08:44:34.404Z,23.6
2019-03-17T08:47:40.383Z,23.6
2019-03-17T08:51:00.480Z,23.6
2019-03-17T08:54:06.551Z,23.6
2019-03-17T08:57:12.592Z,23.6
2019-03-17T09:00:18.556Z,23.6
2019-03-17T09:03:24.509Z,23.6
2019-03-17T09:06:30.416Z,23.6
2019-03-17T09:09:36.353Z,23.6
2019-03-17T09:12:42.309Z,23.6
2019-03-17T09:15:48.192Z,23.6
2019-03-17T09:18:54.192Z,23.6
2019-03-17T09:22:00.177Z,23.6
2019-03-17T09:25:06.152Z,23.6
2019-03-17T09:28:12.094Z,23.6
2019-03-17T09:31:18.038Z,23.6
2019-03-17T09:34:23.947Z,23.6
2019-03-17T09:37:29.899Z,23.6
2019-03-17T09:40:35.838Z,23.7
2019-03-17T09:43:41.819Z,23.7
2019-03-17T09:46:47.695Z,23.7
2019-03-17T09:49:53.624Z,23.7
2019-03-17T09:52:59.574Z,23.7
2019-03-17T09:56:05.510Z,23.7
2019-03-17T09:59:11.411Z,23.7
2019-03-17T10:02:17.352Z,23.7
2019-03-17T10:05:23.310Z,23.7
2019-03-17T10:08:29.310Z,23.7
2019-03-17T10:11:35.228Z,23.7
2019-03-17T10:14:41.118Z,23.7
2019-03-17T10:17:49.611Z,23.7
2019-03-17T10:20:55.579Z,23.7
2019-03-17T10:24:01.576Z,23.7
2019-03-17T10:27:07.514Z,23.7
2019-03-17T10:30:13.559Z,23.7
2019-03-17T10:33:19.516Z,23.8
2019-03-17T10:36:25.488Z,23.8
2019-03-17T10:39:31.596Z,23.7
2019-03-17T10:42:37.433Z,23.8
2019-03-17T10:45:43.451Z,23.8
2019-03-17T10:48:49.338Z,23.8
2019-03-17T10:51:55.451Z,23.8
2019-03-17T10:55:01.442Z,23.8
2019-03-17T10:58:07.404Z,23.8
2019-03-17T11:01:13.450Z,23.8
2019-03-17T11:04:19.391Z,23.8
2019-03-17T11:07:25.240Z,23.8
2019-03-17T11:10:31.165Z,23.8
2019-03-17T11:13:37.270Z,23.9
2019-03-17T11:16:43.440Z,23.9
2019-03-17T11:19:49.374Z,23.9
2019-03-17T11:22:55.360Z,23.8
2019-03-17T11:26:01.277Z,23.8
2019-03-17T11:29:07.207Z,23.8
2019-03-17T11:32:13.180Z,23.9
2019-03-17T11:35:19.134Z,23.9
2019-03-17T11:38:25.111Z,23.9
2019-03-17T11:41:31.045Z,23.8
2019-03-17T11:44:37.358Z,23.9
2019-03-17T11:47:43.195Z,23.9
2019-03-17T11:50:49.175Z,23.9
2019-03-17T11:53:55.144Z,23.9
2019-03-17T11:57:01.080Z,23.9
2019-03-17T12:00:07.267Z,23.9
2019-03-17T12:03:13.237Z,23.9
2019-03-17T12:06:19.338Z,23.9
2019-03-17T12:09:29.170Z,23.9
2019-03-17T12:12:35.652Z,23.9
2019-03-17T12:15:41.726Z,23.9
2019-03-17T12:18:47.615Z,23.9
2019-03-17T12:21:53.618Z,23.9
2019-03-17T12:25:12.639Z,23.9
2019-03-17T12:28:21.400Z,23.9
2019-03-17T12:31:27.457Z,23.9
2019-03-17T12:34:33.511Z,23.9
2019-03-17T12:37:39.428Z,23.9
2019-03-17T12:40:45.387Z,23.9
2019-03-17T12:43:51.322Z,23.9
2019-03-17T12:46:57.251Z,23.9
2019-03-17T12:50:03.083Z,23.9
2019-03-17T12:53:09.025Z,23.9
2019-03-17T12:56:15.094Z,23.9
2019-03-17T12:59:21.098Z,23.9
2019-03-17T13:02:27.022Z,23.9
2019-03-17T13:05:33.064Z,23.9
2019-03-17T13:08:39.099Z,23.9
2019-03-17T13:11:45.236Z,23.9
2019-03-17T13:14:51.242Z,23.9
2019-03-17T13:17:57.167Z,23.9
2019-03-17T13:21:03.134Z,24
2019-03-17T13:24:09.076Z,23.9
2019-03-17T13:27:15.023Z,24
2019-03-17T13:30:20.868Z,23.9
2019-03-17T13:33:26.850Z,23.9
2019-03-17T13:36:32.802Z,24
2019-03-17T13:39:38.771Z,24
2019-03-17T13:42:44.768Z,24
2019-03-17T13:45:53.692Z,24
2019-03-17T13:48:59.646Z,24
2019-03-17T13:52:05.523Z,24
2019-03-17T13:55:11.455Z,24
2019-03-17T13:58:17.431Z,24
2019-03-17T14:01:23.415Z,24
2019-03-17T14:04:29.419Z,24
2019-03-17T14:07:35.424Z,24
2019-03-17T14:10:41.715Z,24
2019-03-17T14:13:47.710Z,24
2019-03-17T14:16:53.615Z,24
2019-03-17T14:19:59.663Z,24.1
2019-03-17T14:23:05.733Z,24.1
2019-03-17T14:26:11.777Z,24.1
2019-03-17T14:29:17.759Z,24.2
2019-03-17T14:32:23.706Z,24.3
2019-03-17T14:35:29.750Z,24.2
2019-03-17T14:38:35.800Z,24.2
2019-03-17T14:41:41.874Z,24.3
2019-03-17T14:44:47.923Z,24.3
2019-03-17T14:47:53.885Z,24.4
2019-03-17T14:51:00.020Z,24.4
2019-03-17T14:54:06.040Z,24.4
2019-03-17T14:57:12.009Z,24.4
2019-03-17T15:00:17.969Z,24.4
2019-03-17T15:03:24.025Z,24.5
2019-03-17T15:06:30.002Z,24.4
2019-03-17T15:09:35.961Z,24.5
2019-03-17T15:12:42.043Z,24.5
2019-03-17T15:15:48.070Z,24.5
2019-03-17T15:19:07.136Z,24.5
2019-03-17T15:22:13.087Z,24.5
2019-03-17T15:25:19.016Z,24.5
2019-03-17T15:28:25.040Z,24.5
2019-03-17T15:31:31.037Z,24.6
2019-03-17T15:34:37.028Z,24.6
2019-03-17T15:37:45.810Z,24.6
2019-03-17T15:40:51.783Z,24.6
2019-03-17T15:43:57.765Z,24.6
2019-03-17T15:47:03.712Z,24.6
2019-03-17T15:50:09.614Z,24.5
2019-03-17T15:53:15.720Z,24.6
2019-03-17T15:56:21.701Z,24.5
2019-03-17T15:59:27.641Z,24.6
2019-03-17T16:02:33.664Z,24.6
2019-03-17T16:05:39.688Z,24.6
2019-03-17T16:08:45.660Z,24.6
2019-03-17T16:11:51.944Z,24.6
2019-03-17T16:14:57.872Z,24.5
2019-03-17T16:18:04.065Z,24.5
2019-03-17T16:21:10.029Z,24.5
2019-03-17T16:24:15.986Z,24.5
2019-03-17T16:27:22.000Z,24.5
2019-03-17T16:30:28.146Z,24.5
2019-03-17T16:33:34.280Z,24.5
2019-03-17T16:36:40.215Z,24.5
2019-03-17T16:39:46.178Z,24.4
2019-03-17T16:42:53.894Z,24.4
2019-03-17T16:46:00.156Z,24.3
2019-03-17T16:49:06.128Z,24.3
2019-03-17T16:52:14.710Z,24.2
2019-03-17T16:55:20.600Z,24.2
2019-03-17T16:58:26.746Z,24.2
2019-03-17T17:01:32.617Z,24.1
2019-03-17T17:04:38.619Z,24.1
2019-03-17T17:07:44.700Z,24
2019-03-17T17:10:50.891Z,24
2019-03-17T17:13:56.879Z,24
2019-03-17T17:17:02.898Z,24
2019-03-17T17:20:08.916Z,23.9
2019-03-17T17:23:15.012Z,23.9
2019-03-17T17:26:20.970Z,23.9
2019-03-17T17:29:40.291Z,23.8
2019-03-17T17:32:46.352Z,23.8
2019-03-17T17:35:52.627Z,23.8
2019-03-17T17:38:58.593Z,23.7
2019-03-17T17:42:09.555Z,23.7
2019-03-17T17:45:16.075Z,23.7
2019-03-17T17:48:22.070Z,23.7
2019-03-17T17:51:27.942Z,23.7
2019-03-17T17:54:33.909Z,23.6
2019-03-17T17:57:39.916Z,23.6
2019-03-17T18:00:45.955Z,23.6
2019-03-17T18:03:52.081Z,23.5
2019-03-17T18:06:58.126Z,23.5
2019-03-17T18:10:04.111Z,23.5
2019-03-17T18:13:10.229Z,23.5
2019-03-17T18:16:16.187Z,23.4
2019-03-17T18:19:22.162Z,23.4
2019-03-17T18:22:28.169Z,23.4
2019-03-17T18:25:34.286Z,23.4
2019-03-17T18:28:42.854Z,23.4
2019-03-17T18:31:48.890Z,23.3
2019-03-17T18:34:54.823Z,23.3
2019-03-17T18:38:01.117Z,23.3
2019-03-17T18:41:07.180Z,23.2
2019-03-17T18:44:13.028Z,23.2
2019-03-17T18:47:19.034Z,23.2
2019-03-17T18:50:25.133Z,23.1
2019-03-17T18:53:31.087Z,23.1
2019-03-17T18:56:37.011Z,23.1
2019-03-17T18:59:42.955Z,23.1
2019-03-17T19:02:48.890Z,23.1
2019-03-17T19:05:54.863Z,23.1
2019-03-17T19:09:00.988Z,23
2019-03-17T19:12:06.921Z,23
2019-03-17T19:15:12.940Z,23
2019-03-17T19:18:18.889Z,23
2019-03-17T19:21:24.801Z,23
2019-03-17T19:24:30.644Z,22.9
2019-03-17T19:27:36.609Z,22.9
2019-03-17T19:30:42.532Z,22.9
2019-03-17T19:33:48.490Z,22.9
2019-03-17T19:36:54.472Z,22.9
2019-03-17T19:40:01.217Z,22.8
2019-03-17T19:43:07.391Z,22.8
2019-03-17T19:46:13.352Z,22.8
2019-03-17T19:49:22.100Z,22.8
2019-03-17T19:52:28.089Z,22.8
2019-03-17T19:55:34.003Z,22.8
2019-03-17T19:58:40.654Z,22.7
2019-03-17T20:01:46.700Z,22.7
2019-03-17T20:04:52.684Z,22.7
2019-03-17T20:07:58.714Z,22.7
2019-03-17T20:11:04.710Z,22.6
2019-03-17T20:14:10.587Z,22.6
2019-03-17T20:17:16.547Z,22.6
2019-03-17T20:20:22.632Z,22.6
2019-03-17T20:23:28.722Z,22.5
2019-03-17T20:26:34.693Z,22.5
2019-03-17T20:29:40.618Z,22.5
2019-03-17T20:32:46.569Z,22.5
2019-03-17T20:35:52.489Z,22.5
2019-03-17T20:38:58.679Z,22.5
2019-03-17T20:42:04.723Z,22.5
2019-03-17T20:45:10.648Z,22.4
2019-03-17T20:48:16.863Z,22.4
2019-03-17T20:51:24.256Z,22.4
2019-03-17T20:54:30.249Z,22.4
2019-03-17T20:57:36.251Z,22.3
2019-03-17T21:00:42.190Z,22.3
2019-03-17T21:03:48.198Z,22.3
2019-03-17T21:06:54.191Z,22.3
2019-03-17T21:10:00.265Z,22.3
2019-03-17T21:13:06.348Z,22.3
2019-03-17T21:16:12.217Z,22.3
2019-03-17T21:19:18.176Z,22.2
2019-03-17T21:22:24.221Z,22.2
2019-03-17T21:25:30.191Z,22.2
2019-03-17T21:28:36.161Z,22.2
2019-03-17T21:31:42.165Z,22.2
2019-03-17T21:34:48.077Z,22.1
2019-03-17T21:37:54.086Z,22.1
2019-03-17T21:41:06.794Z,22.1
2019-03-17T21:44:13.180Z,22.1
2019-03-17T21:47:19.083Z,22.1
2019-03-17T21:50:25.028Z,22.1
2019-03-17T21:53:31.008Z,22.1
2019-03-17T21:56:36.923Z,22
2019-03-17T21:59:42.871Z,22
2019-03-17T22:02:48.778Z,22
2019-03-17T22:05:58.014Z,22
2019-03-17T22:09:04.110Z,22
2019-03-17T22:12:10.497Z,22
2019-03-17T22:15:16.533Z,22
2019-03-17T22:18:22.570Z,22
2019-03-17T22:21:28.497Z,22
2019-03-17T22:24:34.389Z,22
2019-03-17T22:27:40.431Z,22
2019-03-17T22:30:46.539Z,22
2019-03-17T22:33:52.603Z,22
2019-03-17T22:36:58.656Z,22
2019-03-17T22:40:04.657Z,21.9
2019-03-17T22:43:10.689Z,21.9
2019-03-17T22:46:16.796Z,21.9
2019-03-17T22:49:22.649Z,21.9
2019-03-17T22:52:28.646Z,21.9
2019-03-17T22:55:34.669Z,21.9
2019-03-17T22:58:40.655Z,21.9
2019-03-17T23:01:46.511Z,21.9
2019-03-17T23:04:52.428Z,21.9
2019-03-17T23:07:58.397Z,21.9
2019-03-17T23:11:04.512Z,21.9
2019-03-17T23:14:10.504Z,21.9
2019-03-17T23:17:16.466Z,21.9
2019-03-17T23:20:22.489Z,21.9
2019-03-17T23:23:28.582Z,21.9
2019-03-17T23:26:34.502Z,21.9
2019-03-17T23:29:40.581Z,21.8
2019-03-17T23:32:49.120Z,21.9
2019-03-17T23:35:55.461Z,21.8
2019-03-17T23:39:01.481Z,21.8
2019-03-17T23:42:07.417Z,21.8
2019-03-17T23:45:13.430Z,21.8
2019-03-17T23:48:19.282Z,21.8
2019-03-17T23:51:25.198Z,21.8
2019-03-17T23:54:31.101Z,21.8
2019-03-17T23:57:37.125Z,21.8
